• Join FlightAware (Why Join?)
  • Login
  • US Flag 
05:03PM EST


 

Airport Tracker/Info


-or-


 

Live Flight TrackerFlight Track Log ✈ EJA951 ✈ 17-Sep-2013 ✈ KSAT - KBPT

Flight Track Log - Related Links

Times and Time Zones

All times are in EDT time to prevent confusion due to time zone crossing. See the EJA951 flight status page for this flight to view local times or setup timezone preferences in your user account.

Time Position Orientation Groundspeed Altitude Reporting Facility
EDT Latitude Longitude Course Direction KTS MPH feet Rate Location/Type
10:57AM 29.5247 -98.4636 133° Southeast 179 206 1,700  Level Houston Center
10:57AM 29.5153 -98.4519 133° Southeast 180 207 3,000 4,140 Climbing Houston Center
10:58AM 29.4825 -98.3972 125° Southeast 225 259 6,900 3,960 Climbing Houston Center
10:59AM 29.5036 -98.3092 75° East 271 312 11,300 3,420 Climbing Houston Center
11:00AM 29.5344 -98.2086 71° East 336 387 14,000 2,640 Climbing Houston Center
11:01AM 29.5686 -98.0978 70° East 364 419 16,800 1,920 Climbing Houston Center
11:02AM 29.6086 -97.9706 70° East 392 451 18,000 1,200 Climbing Houston Center
11:03AM 29.6411 -97.8481 73° East 402 463 19,300 1,140 Climbing Houston Center
11:04AM 29.6453 -97.7231 88° East 407 468 20,400 1,020 Climbing Houston Center
11:05AM 29.6469 -97.5897 89° East 413 475 21,500 1,080 Climbing Houston Center
11:06AM 29.6511 -97.4519 88° East 426 490 22,700 720 Climbing Houston Center
11:08AM 29.6539 -97.3108 89° East 440 506 23,000 120 Climbing Houston Center
11:09AM 29.6572 -97.1586 89° East 467 537 23,000  Level Houston Center
11:10AM 29.6678 -96.9706 86° East 484 557 23,000  Level Houston Center
11:11AM 29.6969 -96.8133 78° East 496 571 23,000  Level Houston Center
11:12AM 29.7264 -96.6553 78° East 499 574 23,000  Level Houston Center
11:13AM 29.7536 -96.4986 79° East 499 574 23,000 -240 Level Houston Center
11:14AM 29.7822 -96.3419 78° East 499 574 22,600 -960 Descending Houston Center
11:15AM 29.8092 -96.1911 78° East 484 557 21,100 -1,200 Descending Houston Center
11:16AM 29.8347 -96.0444 79° East 471 542 20,200 -540 Descending Houston Center
11:17AM 29.8614 -95.8919 79° East 464 534 20,000 -180 Descending Houston Center
11:17AM 29.8800 -95.7894 78° East 451 519 20,000 -300 Level Houston Center
11:18AM 29.8872 -95.7511 78° East 452 520 19,700 -900 Descending Houston Center
11:18AM 29.8964 -95.6911 80° East 447 514 19,400 -1,080 Descending Houston Center
11:19AM 29.9117 -95.6089 78° East 451 519 18,600 -1,200 Descending Houston Center
11:19AM 29.9217 -95.5486 79° East 456 525 18,200 -1,020 Descending Houston Center
11:20AM 29.9414 -95.4383 78° East 450 518 17,600 -900 Descending Houston Center
11:20AM 29.9433 -95.4181 84° East 439 505 17,400 -600 Descending Houston Center
11:21AM 29.9592 -95.2975 81° East 443 510 17,000 -420 Descending Houston Center
11:21AM 29.9572 -95.2717 95° East 441 507 17,000 -180 Level Houston Center
11:22AM 29.9589 -95.1317 89° East 440 506 16,800 -1,080 Descending Houston Center
11:23AM 29.9650 -94.9933 87° East 426 490 14,800 -1,920 Descending Houston Center
11:24AM 29.9706 -94.8808 87° East 424 488 13,100 -2,100 Descending Houston Center
11:24AM 29.9706 -94.8553 90° East 408 470 12,700 -1,800 Descending Houston Center
11:25AM 29.9742 -94.7553 88° East 401 461 11,300 -1,800 Descending Houston Center
11:25AM 29.9756 -94.7314 86° East 357 411 10,900 -1,260 Descending Houston Center
11:26AM 29.9789 -94.6508 87° East 346 398 10,000 -1,020 Descending Houston Center
11:26AM 29.9786 -94.6322 91° East 288 331 9,900 -1,500 Descending Houston Center
11:27AM 29.9822 -94.5625 87° East 292 336 8,500 -1,800 Descending Houston Center
11:27AM 29.9828 -94.5447 88° East 272 313 8,100 -1,560 Descending Houston Center
11:28AM 29.9867 -94.4650 87° East 269 310 6,900 -1,260 Descending Houston Center
11:28AM 29.9861 -94.4503 92° East 250 288 6,700 -1,080 Descending Houston Center
11:29AM 29.9906 -94.3897 85° East 244 281 5,800 -1,080 Descending Houston Center
11:30AM 29.9919 -94.3183 89° East 229 264 4,700 -1,080 Descending Houston Center
11:31AM 29.9931 -94.2439 89° East 207 238 3,600 -1,020 Descending Houston Center
11:31AM 29.9942 -94.2525 278° West 213 245 3,700 -900 Climbing Houston Center
11:32AM 29.9950 -94.1808 89° East 195 224 2,700 -900 Descending Houston Center
11:32AM 29.9967 -94.1889 283° West 204 235 2,800 -900 Climbing Houston Center
11:33AM 29.9972 -94.1178 89° East 186 214 1,800 -1,140 Descending Houston Center
11:33AM 29.9986 -94.1161 46° Northeast 193 222 1,700 -1,020 Descending Houston Center
11:34AM 29.9753 -94.0678 119° Southeast 162 186 800 -900 Descending Houston Center
11:34AM 29.9767 -94.0686 333° Northwest 178 205 800 -720 Level Houston Center
11:35AM 29.9569 -94.0339 123° Southeast 115 132 100 -300 Descending Houston Center
11:35AM 29.9578 -94.0314 69° East 168 193 500 6,000 Climbing Houston Center
11:37AM 29.9500 -94.0167 319° Northwest  Level FlightAware Approximate
11:44AM 29.9508 -94.0207 319° Northwest  Level Estimated